createdAt,value
2018-05-03T00:02:07.844Z,10.20
2018-05-03T00:04:42.964Z,10.10
2018-05-03T00:07:19.743Z,10.20
2018-05-03T00:09:54.970Z,10.20
2018-05-03T00:12:30.328Z,10.10
2018-05-03T00:15:05.571Z,10.10
2018-05-03T00:17:40.732Z,10.10
2018-05-03T00:20:15.946Z,10.00
2018-05-03T00:22:51.261Z,10.00
2018-05-03T00:25:26.658Z,9.90
2018-05-03T00:28:02.686Z,10.20
2018-05-03T00:30:38.130Z,10.10
2018-05-03T00:33:13.307Z,10.20
2018-05-03T00:35:48.576Z,10.20
2018-05-03T00:38:23.835Z,10.20
2018-05-03T00:40:59.102Z,10.20
2018-05-03T00:43:34.571Z,10.10
2018-05-03T00:46:10.527Z,10.00
2018-05-03T00:48:45.915Z,10.00
2018-05-03T00:51:21.267Z,10.00
2018-05-03T00:53:56.402Z,9.90
2018-05-03T00:56:32.366Z,9.90
2018-05-03T00:59:07.691Z,9.90
2018-05-03T01:01:42.966Z,9.90
2018-05-03T01:04:18.229Z,10.00
2018-05-03T01:06:53.561Z,9.90
2018-05-03T01:09:28.868Z,9.90
2018-05-03T01:12:04.208Z,9.80
2018-05-03T01:14:39.331Z,9.80
2018-05-03T01:17:14.559Z,9.80
2018-05-03T01:19:49.802Z,9.80
2018-05-03T01:22:26.068Z,9.80
2018-05-03T01:25:01.957Z,9.70
2018-05-03T01:27:37.081Z,9.70
2018-05-03T01:30:12.425Z,9.70
2018-05-03T01:32:47.758Z,9.60
2018-05-03T01:35:41.079Z,9.60
2018-05-03T01:38:16.999Z,9.40
2018-05-03T01:40:52.280Z,9.40
2018-05-03T01:43:27.456Z,9.40
2018-05-03T01:46:02.763Z,9.40
2018-05-03T01:48:37.921Z,9.30
2018-05-03T01:51:13.177Z,9.30
2018-05-03T01:53:48.599Z,9.30
2018-05-03T01:56:23.863Z,9.30
2018-05-03T01:58:59.111Z,9.30
2018-05-03T02:01:34.349Z,9.40
2018-05-03T02:04:09.666Z,9.40
2018-05-03T02:06:45.044Z,9.40
2018-05-03T02:09:20.982Z,9.50
2018-05-03T02:11:56.286Z,9.40
2018-05-03T02:14:31.443Z,9.50
2018-05-03T02:17:06.694Z,9.50
2018-05-03T02:19:42.065Z,9.40
2018-05-03T02:22:17.379Z,9.40
2018-05-03T02:24:53.339Z,9.40
2018-05-03T02:27:28.559Z,9.40
2018-05-03T02:30:03.811Z,9.40
2018-05-03T02:32:41.162Z,9.50
2018-05-03T02:35:16.721Z,9.50
2018-05-03T02:37:51.915Z,9.50
2018-05-03T02:40:27.856Z,9.50
2018-05-03T02:43:03.849Z,9.50
2018-05-03T02:45:39.146Z,9.50
2018-05-03T02:48:14.502Z,9.50
2018-05-03T02:50:49.859Z,9.50
2018-05-03T02:53:25.038Z,9.50
2018-05-03T02:56:00.309Z,9.60
2018-05-03T02:58:54.218Z,9.60
2018-05-03T03:01:53.009Z,9.60
2018-05-03T03:18:49.507Z,9.60
2018-05-03T03:21:48.257Z,9.50
2018-05-03T03:24:41.550Z,9.60
2018-05-03T03:27:40.564Z,9.60
2018-05-03T03:30:39.362Z,9.50
2018-05-03T03:33:32.427Z,9.50
2018-05-03T03:36:25.249Z,9.50
2018-05-03T03:39:18.202Z,9.50
2018-05-03T03:41:53.370Z,9.50
2018-05-03T03:44:45.556Z,9.50
2018-05-03T03:47:21.568Z,9.50
2018-05-03T03:49:56.903Z,9.50
2018-05-03T03:52:32.109Z,9.60
2018-05-03T03:55:07.279Z,9.50
2018-05-03T03:57:42.548Z,9.50
2018-05-03T04:00:17.854Z,9.60
2018-05-03T04:02:53.683Z,9.60
2018-05-03T04:05:28.840Z,9.60
2018-05-03T04:08:04.948Z,9.60
2018-05-03T04:10:40.308Z,9.60
2018-05-03T04:13:15.487Z,9.70
2018-05-03T04:15:50.862Z,9.60
2018-05-03T04:18:43.985Z,9.70
2018-05-03T04:21:37.091Z,9.70
2018-05-03T04:24:30.321Z,9.70
2018-05-03T04:27:05.598Z,9.70
2018-05-03T04:29:40.756Z,9.70
2018-05-03T04:32:16.608Z,9.80
2018-05-03T04:34:51.760Z,9.70
2018-05-03T04:37:27.087Z,9.80
2018-05-03T04:40:02.324Z,9.80
2018-05-03T04:42:37.655Z,9.80
2018-05-03T04:45:12.951Z,9.90
2018-05-03T04:47:48.223Z,9.90
2018-05-03T04:50:23.549Z,9.90
2018-05-03T04:53:00.320Z,9.90
2018-05-03T04:55:35.652Z,10.00
2018-05-03T04:58:11.854Z,10.00
2018-05-03T05:00:47.107Z,10.00
2018-05-03T05:03:22.359Z,10.10
2018-05-03T05:05:57.791Z,10.10
2018-05-03T05:08:33.751Z,10.20
2018-05-03T05:11:09.204Z,10.10
2018-05-03T05:13:44.394Z,10.20
2018-05-03T05:16:19.640Z,10.30
2018-05-03T05:18:54.941Z,10.40
2018-05-03T05:21:30.146Z,10.50
2018-05-03T05:24:05.316Z,10.60
2018-05-03T05:26:40.407Z,10.60
2018-05-03T05:29:15.740Z,10.70
2018-05-03T05:31:50.903Z,10.70
2018-05-03T05:34:26.280Z,10.80
2018-05-03T05:37:01.663Z,10.80
2018-05-03T05:39:36.932Z,10.90
2018-05-03T05:42:12.925Z,10.90
2018-05-03T05:44:47.413Z,10.90
2018-05-03T05:47:22.443Z,11.00
2018-05-03T05:49:57.630Z,11.00
2018-05-03T05:52:32.930Z,11.00
2018-05-03T05:55:08.303Z,11.00
2018-05-03T05:57:43.682Z,11.00
2018-05-03T06:00:18.975Z,11.00
2018-05-03T06:02:54.239Z,11.00
2018-05-03T06:05:30.220Z,11.00
2018-05-03T06:08:05.492Z,11.00
2018-05-03T06:10:41.493Z,11.10
2018-05-03T06:13:17.090Z,11.10
2018-05-03T06:15:52.447Z,11.20
2018-05-03T06:18:27.986Z,11.20
2018-05-03T06:21:03.979Z,11.10
2018-05-03T06:23:39.162Z,11.10
2018-05-03T06:26:14.467Z,11.10
2018-05-03T06:28:49.778Z,11.20
2018-05-03T06:31:25.180Z,11.30
2018-05-03T06:35:55.195Z,11.40
2018-05-03T06:38:32.156Z,11.50
2018-05-03T06:41:08.015Z,11.80
2018-05-03T06:43:43.982Z,12.10
2018-05-03T06:46:19.406Z,12.10
2018-05-03T06:48:55.391Z,12.30
2018-05-03T06:51:30.527Z,12.30
2018-05-03T06:54:05.721Z,12.40
2018-05-03T06:56:41.091Z,12.40
2018-05-03T06:59:16.350Z,12.50
2018-05-03T07:01:52.375Z,12.60
2018-05-03T07:04:27.816Z,12.60
2018-05-03T07:07:03.132Z,12.60
2018-05-03T07:09:38.264Z,12.70
2018-05-03T07:12:13.642Z,12.80
2018-05-03T07:14:48.774Z,12.80
2018-05-03T07:17:24.771Z,12.90
2018-05-03T07:20:00.728Z,12.90
2018-05-03T07:22:36.678Z,12.90
2018-05-03T07:25:12.639Z,12.90
2018-05-03T07:27:47.738Z,12.90
2018-05-03T07:30:23.070Z,13.00
2018-05-03T07:32:58.350Z,13.10
2018-05-03T07:35:33.489Z,13.00
2018-05-03T07:38:08.679Z,13.30
2018-05-03T07:40:44.862Z,13.40
2018-05-03T07:43:20.740Z,13.40
2018-05-03T07:45:56.060Z,13.40
2018-05-03T07:48:31.748Z,13.50
2018-05-03T07:51:07.315Z,13.70
2018-05-03T07:53:45.101Z,13.80
2018-05-03T07:56:20.326Z,14.00
2018-05-03T07:58:55.438Z,14.10
2018-05-03T08:01:30.833Z,14.00
2018-05-03T08:04:05.903Z,14.00
2018-05-03T08:06:41.346Z,14.00
2018-05-03T08:09:16.683Z,13.90
2018-05-03T08:11:52.627Z,14.10
2018-05-03T08:14:27.784Z,14.10
2018-05-03T08:17:03.797Z,14.30
2018-05-03T08:19:38.991Z,14.30
2018-05-03T08:22:14.342Z,14.30
2018-05-03T08:24:49.672Z,14.40
2018-05-03T08:27:24.977Z,14.40
2018-05-03T08:30:00.151Z,14.40
2018-05-03T08:32:36.060Z,14.50
2018-05-03T08:35:11.340Z,14.50
2018-05-03T08:37:46.533Z,14.60
2018-05-03T08:40:21.668Z,14.60
2018-05-03T08:42:56.976Z,14.60
2018-05-03T08:45:32.395Z,14.50
2018-05-03T08:48:08.459Z,14.60
2018-05-03T08:50:43.683Z,14.60
2018-05-03T08:53:19.058Z,14.70
2018-05-03T08:55:55.023Z,14.90
2018-05-03T08:58:30.103Z,14.90
2018-05-03T09:01:05.487Z,15.00
2018-05-03T09:03:40.911Z,15.00
2018-05-03T09:06:16.894Z,15.10
2018-05-03T09:08:54.227Z,15.10
2018-05-03T09:11:30.256Z,15.20
2018-05-03T09:14:06.170Z,15.20
2018-05-03T09:16:42.172Z,15.10
2018-05-03T09:19:18.460Z,15.10
2018-05-03T09:21:53.632Z,15.30
2018-05-03T09:24:28.799Z,15.30
2018-05-03T09:27:04.893Z,15.40
2018-05-03T09:29:40.062Z,15.30
2018-05-03T09:32:15.322Z,15.40
2018-05-03T09:34:50.656Z,15.30
2018-05-03T09:37:26.086Z,15.40
2018-05-03T09:40:01.227Z,15.30
2018-05-03T09:42:36.567Z,15.30
2018-05-03T09:45:12.458Z,15.40
2018-05-03T09:47:47.629Z,15.30
2018-05-03T09:50:22.927Z,15.40
2018-05-03T09:52:58.275Z,15.50
2018-05-03T09:55:33.488Z,15.60
2018-05-03T09:58:08.717Z,15.80
2018-05-03T10:00:43.979Z,16.00
2018-05-03T10:03:19.123Z,16.20
2018-05-03T10:05:54.548Z,16.40
2018-05-03T10:08:30.522Z,16.70
2018-05-03T10:11:06.472Z,16.90
2018-05-03T10:13:42.435Z,17.10
2018-05-03T10:16:18.385Z,17.50
2018-05-03T10:18:54.250Z,18.10
2018-05-03T10:21:30.256Z,18.80
2018-05-03T10:24:08.539Z,18.70
2018-05-03T10:26:43.843Z,19.30
2018-05-03T10:29:19.164Z,19.80
2018-05-03T10:31:55.255Z,20.20
2018-05-03T10:34:31.203Z,20.00
2018-05-03T10:37:06.495Z,20.00
2018-05-03T10:39:41.870Z,19.90
2018-05-03T10:42:17.103Z,20.10
2018-05-03T10:44:52.974Z,20.40
2018-05-03T10:47:28.074Z,20.40
2018-05-03T10:50:03.352Z,20.70
2018-05-03T10:52:38.688Z,20.80
2018-05-03T10:55:14.028Z,20.80
2018-05-03T10:57:49.444Z,20.60
2018-05-03T11:00:24.763Z,20.40
2018-05-03T11:03:00.700Z,19.90
2018-05-03T11:05:36.687Z,20.30
2018-05-03T11:08:12.510Z,20.20
2018-05-03T11:10:47.782Z,20.20
2018-05-03T11:13:23.023Z,20.00
2018-05-03T11:15:58.296Z,20.00
2018-05-03T11:18:33.750Z,20.00
2018-05-03T11:21:08.875Z,20.10
2018-05-03T11:23:44.231Z,20.10
2018-05-03T11:26:19.356Z,20.20
2018-05-03T11:28:55.433Z,20.70
2018-05-03T11:31:31.412Z,20.60
2018-05-03T11:34:06.706Z,20.70
2018-05-03T11:36:42.680Z,20.50
2018-05-03T11:52:21.727Z,20.60
2018-05-03T11:54:57.015Z,20.70
2018-05-03T11:57:32.336Z,20.70
2018-05-03T12:00:07.598Z,21.10
2018-05-03T12:02:42.945Z,21.30
2018-05-03T12:05:18.940Z,21.60
2018-05-03T12:07:54.168Z,21.60
2018-05-03T12:10:29.511Z,21.50
2018-05-03T12:13:04.713Z,21.90
2018-05-03T12:15:39.964Z,21.90
2018-05-03T12:18:15.403Z,21.90
2018-05-03T12:20:50.518Z,22.00
2018-05-03T12:23:25.803Z,22.30
2018-05-03T12:26:01.142Z,22.00
2018-05-03T12:28:36.360Z,21.60
2018-05-03T12:31:12.387Z,20.70
2018-05-03T12:33:47.553Z,20.70
2018-05-03T12:36:22.800Z,20.60
2018-05-03T12:38:58.184Z,20.60
2018-05-03T12:41:34.162Z,21.30
2018-05-03T12:44:09.345Z,21.30
2018-05-03T12:46:44.747Z,21.70
2018-05-03T12:49:20.088Z,21.80
2018-05-03T12:51:55.280Z,21.80
2018-05-03T12:54:31.006Z,21.80
2018-05-03T12:57:07.035Z,21.60
2018-05-03T12:59:42.581Z,21.60
2018-05-03T13:02:17.955Z,21.60
2018-05-03T13:04:53.343Z,21.50
2018-05-03T13:07:28.439Z,21.20
2018-05-03T13:10:03.804Z,20.90
2018-05-03T13:12:39.135Z,20.80
2018-05-03T13:15:14.482Z,21.10
2018-05-03T13:17:49.798Z,21.30
2018-05-03T13:20:25.072Z,21.30
2018-05-03T13:23:00.288Z,21.50
2018-05-03T13:25:36.363Z,21.60
2018-05-03T13:28:11.505Z,21.60
2018-05-03T13:30:46.724Z,21.60
2018-05-03T13:33:22.057Z,21.50
2018-05-03T13:35:57.369Z,21.30
2018-05-03T13:38:32.714Z,20.80
2018-05-03T13:41:08.004Z,20.40
2018-05-03T13:43:43.300Z,20.30
2018-05-03T13:46:18.673Z,20.20
2018-05-03T13:48:54.723Z,20.40
2018-05-03T13:51:29.936Z,20.40
2018-05-03T13:54:05.019Z,20.50
2018-05-03T13:56:40.362Z,20.60
2018-05-03T13:59:15.685Z,20.60
2018-05-03T14:01:51.034Z,20.60
2018-05-03T14:04:26.187Z,20.60
2018-05-03T14:07:01.401Z,20.60
2018-05-03T14:09:36.534Z,20.60
2018-05-03T14:12:11.820Z,20.70
2018-05-03T14:14:47.412Z,20.40
2018-05-03T14:17:22.454Z,20.40
2018-05-03T14:19:58.081Z,20.40
2018-05-03T14:22:33.270Z,20.40
2018-05-03T14:25:09.252Z,20.10
2018-05-03T14:27:44.544Z,20.10
2018-05-03T14:30:19.870Z,20.20
2018-05-03T14:32:55.136Z,20.30
2018-05-03T14:35:30.396Z,20.30
2018-05-03T14:38:05.710Z,20.40
2018-05-03T14:40:40.975Z,20.40
2018-05-03T14:43:16.409Z,20.10
2018-05-03T14:45:51.531Z,19.90
2018-05-03T14:48:26.757Z,19.70
2018-05-03T14:51:02.119Z,19.70
2018-05-03T14:53:37.481Z,19.50
2018-05-03T14:56:12.846Z,19.30
2018-05-03T14:58:48.768Z,19.10
2018-05-03T15:01:24.239Z,19.10
2018-05-03T15:03:59.551Z,19.10
2018-05-03T15:06:34.695Z,19.00
2018-05-03T15:09:09.925Z,18.90
2018-05-03T15:11:45.237Z,18.90
2018-05-03T15:14:20.503Z,18.90
2018-05-03T15:16:55.761Z,18.80
2018-05-03T15:19:31.010Z,18.70
2018-05-03T15:22:06.423Z,18.60
2018-05-03T15:24:42.498Z,18.60
2018-05-03T15:27:17.756Z,18.50
2018-05-03T15:29:53.006Z,18.70
2018-05-03T15:32:28.404Z,18.80
2018-05-03T15:35:05.858Z,18.70
2018-05-03T15:37:41.237Z,18.70
2018-05-03T15:40:16.581Z,18.70
2018-05-03T15:42:51.833Z,18.80
2018-05-03T15:45:27.167Z,18.80
2018-05-03T15:48:02.521Z,18.80
2018-05-03T15:50:37.808Z,18.70
2018-05-03T15:53:13.095Z,18.70
2018-05-03T15:55:48.422Z,18.70
2018-05-03T15:58:23.663Z,18.80
2018-05-03T16:00:59.006Z,18.70
2018-05-03T16:03:34.205Z,18.70
2018-05-03T16:06:10.127Z,18.60
2018-05-03T16:08:45.234Z,18.60
2018-05-03T16:11:20.493Z,18.60
2018-05-03T16:13:55.819Z,18.50
2018-05-03T16:16:31.088Z,18.40
2018-05-03T16:19:06.402Z,18.40
2018-05-03T16:21:41.754Z,18.40
2018-05-03T16:24:16.992Z,18.40
2018-05-03T16:26:52.349Z,18.40
2018-05-03T16:29:27.779Z,18.40
2018-05-03T16:32:03.141Z,18.30
2018-05-03T16:34:38.428Z,18.20
2018-05-03T16:37:13.725Z,18.20
2018-05-03T16:39:49.751Z,18.10
2018-05-03T16:42:25.754Z,18.00
2018-05-03T16:45:00.950Z,18.00
2018-05-03T16:47:36.214Z,18.00
2018-05-03T16:50:12.967Z,18.00
2018-05-03T16:52:48.100Z,17.90
2018-05-03T16:55:24.139Z,17.90
2018-05-03T16:58:00.424Z,17.80
2018-05-03T17:00:35.561Z,17.90
2018-05-03T17:03:10.645Z,17.80
2018-05-03T17:05:45.767Z,17.80
2018-05-03T17:08:21.073Z,17.70
2018-05-03T17:10:56.306Z,17.70
2018-05-03T17:13:31.650Z,17.70
2018-05-03T17:16:07.633Z,17.60
2018-05-03T17:18:43.767Z,17.60
2018-05-03T17:21:19.018Z,17.50
2018-05-03T17:23:54.993Z,17.50
2018-05-03T17:26:30.173Z,17.40
2018-05-03T17:29:05.940Z,17.40
2018-05-03T17:31:40.980Z,17.40
2018-05-03T17:34:16.410Z,17.30
2018-05-03T17:36:51.700Z,17.20
2018-05-03T17:39:26.849Z,17.20
2018-05-03T17:42:02.070Z,17.10
2018-05-03T17:44:37.334Z,17.10
2018-05-03T17:47:12.564Z,17.10
2018-05-03T17:49:47.783Z,17.00
2018-05-03T17:52:23.024Z,16.90
2018-05-03T17:54:59.082Z,16.80
2018-05-03T17:57:34.306Z,16.80
2018-05-03T18:00:09.791Z,16.80
2018-05-03T18:02:45.013Z,16.80
2018-05-03T18:05:20.336Z,16.70
2018-05-03T18:07:55.636Z,16.70
2018-05-03T18:10:35.490Z,16.60
2018-05-03T18:13:10.706Z,16.60
2018-05-03T18:15:46.082Z,16.60
2018-05-03T18:18:21.310Z,16.50
2018-05-03T18:20:56.490Z,16.40
2018-05-03T18:23:32.471Z,16.30
2018-05-03T18:26:09.451Z,16.20
2018-05-03T18:28:44.768Z,16.30
2018-05-03T18:31:20.837Z,16.10
2018-05-03T18:33:55.978Z,16.10
2018-05-03T18:36:31.218Z,16.00
2018-05-03T18:39:06.555Z,15.90
2018-05-03T18:41:41.826Z,15.80
2018-05-03T18:44:17.708Z,15.70
2018-05-03T18:46:53.744Z,15.60
2018-05-03T18:49:29.042Z,15.60
2018-05-03T18:52:04.145Z,15.50
2018-05-03T18:54:39.493Z,15.40
2018-05-03T18:57:14.735Z,15.30
2018-05-03T18:59:50.156Z,15.20
2018-05-03T19:02:25.431Z,15.20
2018-05-03T19:05:00.766Z,15.10
2018-05-03T19:07:36.702Z,14.90
2018-05-03T19:10:12.667Z,14.80
2018-05-03T19:12:48.445Z,14.80
2018-05-03T19:15:23.611Z,14.70
2018-05-03T19:17:59.039Z,14.70
2018-05-03T19:20:34.346Z,14.70
2018-05-03T19:23:09.583Z,14.60
2018-05-03T19:25:46.128Z,14.50
2018-05-03T19:28:21.396Z,14.50
2018-05-03T19:30:57.419Z,14.40
2018-05-03T19:33:32.580Z,14.40
2018-05-03T19:36:07.984Z,14.30
2018-05-03T19:38:43.233Z,14.30
2018-05-03T19:41:19.247Z,14.20
2018-05-03T19:43:54.473Z,14.10
2018-05-03T19:46:29.707Z,14.10
2018-05-03T19:49:05.625Z,14.10
2018-05-03T19:51:40.762Z,14.10
2018-05-03T19:54:16.029Z,14.10
2018-05-03T19:56:51.355Z,14.10
2018-05-03T19:59:26.717Z,14.00
2018-05-03T20:02:02.036Z,13.90
2018-05-03T20:04:37.982Z,13.80
2018-05-03T20:07:13.895Z,13.80
2018-05-03T20:09:48.967Z,13.80
2018-05-03T20:12:24.287Z,13.80
2018-05-03T20:14:59.535Z,13.70
2018-05-03T20:17:34.822Z,13.70
2018-05-03T20:20:10.171Z,13.60
2018-05-03T20:22:45.515Z,13.60
2018-05-03T20:25:20.723Z,13.50
2018-05-03T20:27:56.028Z,13.50
2018-05-03T20:30:31.350Z,13.40
2018-05-03T20:33:06.633Z,13.50
2018-05-03T20:35:42.579Z,13.50
2018-05-03T20:38:18.528Z,13.40
2018-05-03T20:40:54.844Z,13.40
2018-05-03T20:43:29.998Z,13.40
2018-05-03T20:46:07.276Z,13.40
2018-05-03T20:48:42.283Z,13.30
2018-05-03T20:51:17.642Z,13.30
2018-05-03T20:53:52.716Z,13.30
2018-05-03T20:56:28.751Z,13.20
2018-05-03T20:59:04.655Z,13.20
2018-05-03T21:01:40.032Z,13.10
2018-05-03T21:04:15.136Z,13.10
2018-05-03T21:06:50.573Z,13.10
2018-05-03T21:09:26.598Z,13.10
2018-05-03T21:12:02.610Z,13.00
2018-05-03T21:14:37.723Z,13.00
2018-05-03T21:17:13.052Z,13.00
2018-05-03T21:19:48.298Z,12.90
2018-05-03T21:22:24.563Z,12.90
2018-05-03T21:24:59.996Z,12.90
2018-05-03T21:27:35.223Z,12.80
2018-05-03T21:30:10.452Z,12.90
2018-05-03T21:32:45.814Z,12.80
2018-05-03T21:35:21.123Z,12.70
2018-05-03T21:37:56.407Z,12.70
2018-05-03T21:40:31.737Z,12.70
2018-05-03T21:43:07.071Z,12.70
2018-05-03T21:45:42.416Z,12.60
2018-05-03T21:48:17.864Z,12.60
2018-05-03T21:50:53.129Z,12.60
2018-05-03T21:53:28.498Z,12.60
2018-05-03T21:56:03.771Z,12.60
2018-05-03T21:58:39.126Z,12.50
2018-05-03T22:01:14.773Z,12.50
2018-05-03T22:03:50.187Z,12.50
2018-05-03T22:06:25.479Z,12.50
2018-05-03T22:09:00.639Z,12.40
2018-05-03T22:11:36.112Z,12.40
2018-05-03T22:14:11.287Z,12.40
2018-05-03T22:16:46.752Z,12.40
2018-05-03T22:19:22.837Z,12.30
2018-05-03T22:21:58.818Z,12.30
2018-05-03T22:24:34.811Z,12.20
2018-05-03T22:27:10.188Z,12.20
2018-05-03T22:29:45.510Z,12.20
2018-05-03T22:32:21.450Z,12.20
2018-05-03T22:34:56.693Z,12.20
2018-05-03T22:37:32.013Z,12.10
2018-05-03T22:40:07.306Z,12.10
2018-05-03T22:42:42.498Z,12.10
2018-05-03T22:45:17.669Z,12.00
2018-05-03T22:47:52.869Z,12.00
2018-05-03T22:50:28.104Z,12.00
2018-05-03T22:53:03.459Z,11.90
2018-05-03T22:55:38.809Z,11.90
2018-05-03T22:58:14.791Z,11.90
2018-05-03T23:00:49.969Z,11.90
2018-05-03T23:03:26.063Z,11.80
2018-05-03T23:06:01.290Z,11.80
2018-05-03T23:08:36.771Z,11.80
2018-05-03T23:11:12.806Z,11.80
2018-05-03T23:13:48.087Z,11.80
2018-05-03T23:16:24.157Z,11.80
2018-05-03T23:19:00.058Z,11.70
2018-05-03T23:21:36.960Z,11.70
2018-05-03T23:24:12.062Z,11.70
2018-05-03T23:26:47.296Z,11.70
2018-05-03T23:29:22.703Z,11.60
2018-05-03T23:31:58.630Z,11.60
2018-05-03T23:34:33.911Z,11.60
2018-05-03T23:37:09.183Z,11.60
2018-05-03T23:39:44.619Z,11.60
2018-05-03T23:42:19.977Z,11.50
2018-05-03T23:44:55.184Z,11.50
2018-05-03T23:47:30.452Z,11.50
2018-05-03T23:50:05.718Z,11.50
2018-05-03T23:52:41.026Z,11.40
2018-05-03T23:55:16.172Z,11.50
2018-05-03T23:57:51.445Z,11.40
